Bruce, Wisconsin
Current Conditions -  °F | °C
As of 5:15 AM on Sunday 21 Dec 2014 (Local Time) from KRCX Reporting Station
Haze Haze  
Wind Chill: 23°   Ceiling: 800
Heat Index: 30°   Visibility: 5mi
Dew Point: 28°   Wind: 7mph
Humidity: 93%   Direction: 140°SE
Pressure: 30.03"   Gusts: NA
Location:  45.46°N, 91.27°W
Report Text: KRCX 211115Z AUTO 14006KT 5SM BR BKN008 OVC019 M01/M02 A3003 RMK AO2 T10101020
Loading
Personal Weather Stations






























Interactive Weather Map New forecast layout! Learn more

10-Day Weather Forecast

Advertisements
Track Severe Weather on mobile